createdAt,value
2018-11-07T00:04:18.535Z,7.53
2018-11-07T00:09:12.924Z,7.10
2018-11-07T00:14:07.490Z,7.20
2018-11-07T00:19:01.894Z,5.90
2018-11-07T00:23:56.518Z,5.87
2018-11-07T00:28:50.981Z,6.90
2018-11-07T00:33:45.587Z,7.07
2018-11-07T00:38:40.120Z,7.60
2018-11-07T00:43:34.620Z,6.47
2018-11-07T00:48:29.025Z,6.93
2018-11-07T00:53:23.512Z,4.50
2018-11-07T00:58:17.939Z,6.30
2018-11-07T01:03:12.352Z,5.03
2018-11-07T01:08:06.816Z,7.03
2018-11-07T01:13:01.333Z,8.23
2018-11-07T01:17:55.768Z,7.57
2018-11-07T01:22:50.204Z,5.93
2018-11-07T01:27:44.659Z,7.00
2018-11-07T01:32:39.131Z,5.47
2018-11-07T01:37:33.584Z,6.03
2018-11-07T01:42:28.019Z,6.37
2018-11-07T01:47:22.494Z,8.17
2018-11-07T01:52:16.947Z,7.53
2018-11-07T01:57:11.358Z,8.83
2018-11-07T02:02:05.910Z,10.33
2018-11-07T02:07:00.318Z,8.47
2018-11-07T02:11:54.738Z,9.10
2018-11-07T02:16:49.186Z,10.23
2018-11-07T02:21:43.755Z,11.17
2018-11-07T02:26:38.175Z,8.33
2018-11-07T02:31:32.576Z,7.40
2018-11-07T02:36:27.100Z,8.20
2018-11-07T02:41:21.617Z,12.37
2018-11-07T02:46:16.105Z,9.63
2018-11-07T02:51:10.523Z,10.90
2018-11-07T02:56:05.093Z,12.53
2018-11-07T03:00:59.514Z,12.10
2018-11-07T03:05:53.951Z,12.63
2018-11-07T03:10:48.455Z,12.00
2018-11-07T03:15:42.845Z,9.37
2018-11-07T03:20:37.308Z,8.93
2018-11-07T03:25:31.739Z,11.87
2018-11-07T03:30:26.164Z,11.60
2018-11-07T03:35:26.669Z,11.40
2018-11-07T03:40:21.091Z,11.93
2018-11-07T03:45:15.546Z,13.27
2018-11-07T03:50:10.016Z,13.13
2018-11-07T03:55:04.436Z,11.37
2018-11-07T03:59:58.849Z,13.97
2018-11-07T04:04:53.292Z,12.97
2018-11-07T04:09:47.747Z,9.77
2018-11-07T04:14:42.186Z,11.37
2018-11-07T04:19:36.644Z,20.17
2018-11-07T04:24:31.094Z,19.67
2018-11-07T04:29:25.524Z,62.53
2018-11-07T04:34:20.055Z,21.80
2018-11-07T04:39:14.854Z,25.13
2018-11-07T04:44:09.703Z,18.30
2018-11-07T04:49:04.204Z,15.93
2018-11-07T04:53:58.609Z,17.57
2018-11-07T04:58:53.096Z,15.60
2018-11-07T05:03:47.539Z,18.70
2018-11-07T05:08:41.974Z,19.07
2018-11-07T05:13:36.492Z,17.30
2018-11-07T05:18:30.904Z,15.57
2018-11-07T05:23:25.292Z,14.63
2018-11-07T05:28:19.720Z,15.53
2018-11-07T05:33:14.184Z,15.77
2018-11-07T05:38:08.682Z,18.90
2018-11-07T05:43:03.101Z,16.97
2018-11-07T05:47:57.550Z,16.97
2018-11-07T05:52:51.933Z,29.43
2018-11-07T05:57:46.343Z,25.87
2018-11-07T06:02:41.158Z,22.17
2018-11-07T06:07:35.924Z,25.80
2018-11-07T06:12:30.323Z,20.57
2018-11-07T06:17:24.793Z,19.03
2018-11-07T06:22:19.216Z,19.37
2018-11-07T06:27:13.741Z,16.60
2018-11-07T06:32:08.215Z,18.20
2018-11-07T06:37:02.694Z,21.17
2018-11-07T06:41:57.102Z,25.90
2018-11-07T06:46:51.576Z,31.13
2018-11-07T06:51:46.015Z,27.50
2018-11-07T06:56:40.515Z,40.20
2018-11-07T07:01:35.190Z,42.43
2018-11-07T07:06:29.682Z,48.10
2018-11-07T07:11:24.423Z,26.07
2018-11-07T07:16:24.484Z,27.17
2018-11-07T07:21:31.096Z,24.17
2018-11-07T07:26:26.035Z,29.03
2018-11-07T07:31:20.504Z,22.57
2018-11-07T07:36:15.201Z,49.70
2018-11-07T07:41:09.791Z,25.97
2018-11-07T07:46:04.264Z,25.53
2018-11-07T07:50:58.801Z,37.00
2018-11-07T07:55:53.381Z,40.93
2018-11-07T08:00:47.879Z,28.40
2018-11-07T08:05:42.316Z,61.17
2018-11-07T08:10:37.146Z,23.30
2018-11-07T08:15:32.718Z,31.13
2018-11-07T08:20:27.415Z,24.50
2018-11-07T08:25:21.939Z,33.83
2018-11-07T08:30:18.805Z,21.00
2018-11-07T08:35:15.352Z,24.20
2018-11-07T08:40:19.617Z,25.13
2018-11-07T08:45:14.744Z,26.77
2018-11-07T08:50:12.455Z,21.40
2018-11-07T08:55:32.736Z,22.27
2018-11-07T09:00:44.766Z,22.17
2018-11-07T09:05:59.601Z,18.07
2018-11-07T09:11:19.483Z,19.80
2018-11-07T09:16:14.811Z,18.40
2018-11-07T09:21:09.897Z,17.67
2018-11-07T09:26:05.929Z,18.17
2018-11-07T09:31:01.970Z,16.70
2018-11-07T09:35:56.431Z,18.07
2018-11-07T09:40:52.203Z,23.80
2018-11-07T09:45:47.406Z,15.53
2018-11-07T09:50:41.948Z,17.17
2018-11-07T09:55:47.513Z,15.10
2018-11-07T10:00:42.290Z,18.27
2018-11-07T10:05:37.086Z,16.80
2018-11-07T10:10:31.605Z,17.70
2018-11-07T10:15:26.885Z,17.60
2018-11-07T10:20:29.360Z,16.20
2018-11-07T10:25:24.388Z,18.77
2018-11-07T10:30:22.272Z,17.53
2018-11-07T10:35:17.821Z,15.57
2018-11-07T10:40:15.397Z,17.83
2018-11-07T10:45:11.612Z,17.57
2018-11-07T10:50:08.428Z,17.90
2018-11-07T10:55:03.742Z,14.70
2018-11-07T10:59:58.659Z,16.40
2018-11-07T11:04:53.292Z,16.37
2018-11-07T11:09:47.912Z,16.13
2018-11-07T11:14:44.028Z,15.40
2018-11-07T11:19:38.674Z,16.70
2018-11-07T11:24:34.761Z,15.73
2018-11-07T11:29:31.338Z,16.50
2018-11-07T11:34:25.901Z,15.90
2018-11-07T11:39:23.563Z,15.43
2018-11-07T11:44:27.230Z,13.07
2018-11-07T11:49:28.874Z,11.83
2018-11-07T11:54:33.703Z,13.77
2018-11-07T11:59:32.781Z,12.60
2018-11-07T12:04:27.371Z,12.53
2018-11-07T12:09:21.885Z,14.73
2018-11-07T12:14:16.442Z,14.93
2018-11-07T12:19:12.503Z,15.50
2018-11-07T12:24:11.973Z,15.80
2018-11-07T12:29:07.015Z,18.60
2018-11-07T12:34:07.555Z,16.63
2018-11-07T12:39:02.458Z,16.17
2018-11-07T12:43:57.261Z,12.70
2018-11-07T12:48:52.626Z,14.40
2018-11-07T12:53:47.257Z,17.83
2018-11-07T12:58:41.760Z,14.83
2018-11-07T13:03:36.300Z,14.07
2018-11-07T13:08:31.747Z,15.63
2018-11-07T13:13:26.285Z,12.60
2018-11-07T13:18:20.844Z,13.87
2018-11-07T13:23:15.421Z,12.47
2018-11-07T13:28:10.167Z,13.37
2018-11-07T13:33:06.889Z,13.10
2018-11-07T13:38:01.713Z,15.07
2018-11-07T13:42:55.955Z,15.87
2018-11-07T13:47:53.999Z,14.37
2018-11-07T13:52:49.853Z,15.77
2018-11-07T13:57:45.923Z,14.17
2018-11-07T14:02:44.466Z,11.30
2018-11-07T14:07:42.748Z,14.90
2018-11-07T14:12:38.456Z,13.67
2018-11-07T14:17:35.825Z,13.80
2018-11-07T14:22:30.463Z,14.43
2018-11-07T14:27:25.034Z,14.07
2018-11-07T14:32:21.338Z,15.77
2018-11-07T14:37:15.925Z,12.77
2018-11-07T14:42:10.808Z,12.57
2018-11-07T14:47:05.713Z,12.23
2018-11-07T14:52:00.157Z,13.37
2018-11-07T14:56:54.748Z,14.13
2018-11-07T15:01:49.714Z,14.40
2018-11-07T15:06:46.444Z,15.03
2018-11-07T15:11:41.075Z,13.20
2018-11-07T15:16:35.649Z,14.90
2018-11-07T15:21:30.288Z,14.70
2018-11-07T15:26:28.403Z,15.77
2018-11-07T15:31:26.221Z,16.30
2018-11-07T15:36:25.505Z,14.17
2018-11-07T15:41:20.120Z,16.87
2018-11-07T15:46:14.631Z,15.90
2018-11-07T15:51:11.841Z,17.97
2018-11-07T15:56:07.112Z,16.40
2018-11-07T16:01:01.719Z,15.07
2018-11-07T16:05:56.869Z,15.43
2018-11-07T16:10:51.293Z,10.97
2018-11-07T16:15:45.952Z,12.20
2018-11-07T16:20:40.422Z,11.13
2018-11-07T16:25:35.045Z,12.97
2018-11-07T16:30:29.736Z,10.60
2018-11-07T16:35:24.513Z,10.53
2018-11-07T16:40:19.518Z,11.93
2018-11-07T16:45:17.916Z,14.10
2018-11-07T16:50:13.642Z,8.07
2018-11-07T16:55:18.453Z,8.20
2018-11-07T17:00:16.873Z,10.97
2018-11-07T17:05:12.328Z,11.63
2018-11-07T17:10:08.385Z,14.17
2018-11-07T17:15:02.857Z,12.97
2018-11-07T17:19:57.298Z,12.97
2018-11-07T17:24:51.707Z,13.20
2018-11-07T17:29:46.207Z,13.90
2018-11-07T17:34:40.662Z,12.23
2018-11-07T17:39:35.077Z,12.37
2018-11-07T17:44:29.525Z,13.67
2018-11-07T17:49:24.117Z,14.73
2018-11-07T17:54:18.547Z,15.10
2018-11-07T17:59:12.956Z,16.13
2018-11-07T18:04:07.548Z,14.70
2018-11-07T18:09:01.988Z,14.80
2018-11-07T18:13:56.422Z,16.30
2018-11-07T18:18:50.888Z,17.20
2018-11-07T18:23:45.304Z,18.20
2018-11-07T18:28:39.744Z,16.37
2018-11-07T18:33:34.229Z,14.83
2018-11-07T18:38:28.662Z,16.13
2018-11-07T18:43:23.135Z,18.07
2018-11-07T18:48:17.544Z,16.93
2018-11-07T18:53:12.016Z,18.47
2018-11-07T18:58:07.077Z,17.77
2018-11-07T19:03:01.528Z,16.03
2018-11-07T19:07:55.952Z,20.37
2018-11-07T19:12:51.052Z,16.73
2018-11-07T19:17:46.503Z,18.07
2018-11-07T19:22:40.957Z,20.10
2018-11-07T19:27:35.600Z,22.00
2018-11-07T19:32:30.029Z,29.23
2018-11-07T19:37:24.491Z,28.03
2018-11-07T19:42:19.000Z,28.57
2018-11-07T19:47:13.461Z,25.73
2018-11-07T19:52:07.924Z,24.60
2018-11-07T19:57:02.360Z,19.57
2018-11-07T20:01:56.801Z,17.53
2018-11-07T20:06:51.225Z,19.47
2018-11-07T20:11:45.700Z,17.00
2018-11-07T20:16:40.201Z,19.07
2018-11-07T20:21:34.591Z,18.77
2018-11-07T20:26:29.021Z,17.73
2018-11-07T20:31:23.456Z,19.80
2018-11-07T20:36:18.007Z,21.67
2018-11-07T20:41:12.371Z,19.03
2018-11-07T20:46:07.072Z,17.37
2018-11-07T20:51:01.513Z,19.80
2018-11-07T20:55:55.994Z,21.03
2018-11-07T21:00:50.458Z,21.80
2018-11-07T21:05:44.966Z,20.20
2018-11-07T21:10:39.404Z,19.57
2018-11-07T21:15:33.833Z,20.33
2018-11-07T21:20:28.324Z,20.33
2018-11-07T21:25:22.810Z,19.50
2018-11-07T21:30:17.333Z,22.53
2018-11-07T21:35:11.874Z,25.87
2018-11-07T21:40:09.518Z,19.80
2018-11-07T21:45:04.005Z,20.50
2018-11-07T21:49:58.456Z,18.60
2018-11-07T21:54:52.984Z,16.70
2018-11-07T21:59:47.308Z,18.10
2018-11-07T22:04:41.712Z,19.40
2018-11-07T22:09:36.134Z,16.37
2018-11-07T22:14:30.557Z,15.23
2018-11-07T22:19:25.115Z,16.57
2018-11-07T22:24:19.626Z,15.87
2018-11-07T22:29:14.041Z,17.60
2018-11-07T22:34:08.477Z,17.23
2018-11-07T22:39:02.948Z,17.07
2018-11-07T22:43:57.360Z,16.13
2018-11-07T22:48:51.764Z,17.63
2018-11-07T22:53:46.181Z,15.33
2018-11-07T22:58:40.609Z,19.67
2018-11-07T23:03:35.113Z,18.70
2018-11-07T23:08:29.497Z,18.87
2018-11-07T23:13:23.953Z,18.40
2018-11-07T23:18:19.957Z,16.33
2018-11-07T23:23:14.516Z,18.20
2018-11-07T23:28:08.954Z,17.40
2018-11-07T23:33:03.360Z,17.47
2018-11-07T23:37:57.828Z,18.17
2018-11-07T23:42:52.250Z,20.13
2018-11-07T23:47:46.677Z,19.17
2018-11-07T23:52:47.435Z,22.63
2018-11-07T23:57:41.839Z,21.30
